Time;durP1;ratioP1;P1;durP2;ratioP2;P2;SDS_P1;SDS_P2;PMS_P1;PMS_P2;Temp;Humidity;BMP_temperature;BMP_pressure;BME280_temperature;BME280_humidity;BME280_pressure;Samples;Min_cycle;Max_cycle;Signal;HPM_P1;HPM_P2
2021/12/14 00:01:47;;;;;;;15.18;11.32;;;;;;;7.57;93.57;102634.22;5067222;28;20027;-63
2021/12/14 00:04:21;;;;;;;14.88;11.57;;;;;;;7.55;93.65;102636.13;5067820;28;20101;-63
2021/12/14 00:06:48;;;;;;;13.88;11.00;;;;;;;7.56;93.55;102640.47;5068076;28;20131;-63
2021/12/14 00:09:24;;;;;;;13.10;10.55;;;;;;;7.54;93.83;102623.88;5060679;28;20086;-63
2021/12/14 00:17:09;;;;;;;14.68;11.48;;;;;;;7.54;93.76;102644.19;5068093;28;20028;-63
2021/12/14 00:19:35;;;;;;;14.30;11.82;;;;;;;7.54;93.77;102650.31;5066468;28;20024;-63
2021/12/14 00:22:06;;;;;;;15.93;11.02;;;;;;;7.54;94.12;102647.66;5068013;28;20028;-63
2021/12/14 00:24:33;;;;;;;16.95;11.40;;;;;;;7.52;93.94;102641.66;5066662;28;20101;-63
2021/12/14 00:27:04;;;;;;;14.32;11.25;;;;;;;7.49;94.18;102636.53;5068201;28;20025;-63
2021/12/14 00:29:33;;;;;;;17.05;11.65;;;;;;;7.49;94.12;102640.97;5067300;28;20078;-63
2021/12/14 00:32:06;;;;;;;13.43;10.40;;;;;;;7.47;94.21;102641.09;5064651;28;20025;-63
2021/12/14 00:34:41;;;;;;;13.38;11.15;;;;;;;7.45;94.06;102640.34;5067236;28;20110;-63
2021/12/14 00:37:09;;;;;;;14.40;10.87;;;;;;;7.46;94.24;102648.19;5067629;28;20035;-63
2021/12/14 00:39:35;;;;;;;13.30;10.70;;;;;;;7.45;94.01;102651.78;5067496;28;20438;-63
2021/12/14 00:42:00;;;;;;;15.47;11.17;;;;;;;7.46;94.09;102665.84;5069017;28;20097;-63
2021/12/14 00:44:26;;;;;;;15.40;11.02;;;;;;;7.47;94.35;102667.53;5070990;28;20024;-63
2021/12/14 00:46:51;;;;;;;14.15;10.88;;;;;;;7.45;94.10;102664.97;5071741;28;20036;-63
2021/12/14 00:49:17;;;;;;;14.80;11.50;;;;;;;7.49;94.57;102678.84;5070699;28;20028;-63
2021/12/14 00:51:43;;;;;;;13.95;11.02;;;;;;;7.47;94.25;102678.09;5071296;28;20119;-63
2021/12/14 00:54:12;;;;;;;14.27;11.30;;;;;;;7.46;94.28;102682.53;5071258;28;20162;-63
2021/12/14 00:56:39;;;;;;;;;;;;;;;7.47;94.69;102678.94;5072191;28;20117;-63
2021/12/14 00:59:06;;;;;;;19.08;11.48;;;;;;;7.46;94.60;102679.03;5069814;28;19939;-63
2021/12/14 01:01:39;;;;;;;14.85;11.85;;;;;;;7.47;94.62;102680.75;5071073;28;20074;-63
2021/12/14 01:04:08;;;;;;;14.60;11.15;;;;;;;7.44;94.76;102665.09;5071277;28;20032;-63
2021/12/14 01:06:37;;;;;;;16.80;11.37;;;;;;;7.38;94.51;102655.78;5071480;28;20079;-63
2021/12/14 01:09:05;;;;;;;15.60;11.20;;;;;;;7.44;94.38;102662.44;5069236;28;20519;-63
2021/12/14 01:11:42;;;;;;;17.35;12.40;;;;;;;7.42;94.79;102665.19;5070774;28;20032;-63
2021/12/14 01:14:38;;;;;;;15.38;11.93;;;;;;;7.42;95.18;102661.72;5067021;28;20514;-63
2021/12/14 01:17:11;;;;;;;15.30;11.93;;;;;;;7.40;95.05;102664.47;5070963;28;20086;-63
2021/12/14 01:19:39;;;;;;;14.97;12.67;;;;;;;7.40;94.97;102680.31;5069956;28;20029;-63
2021/12/14 01:22:20;;;;;;;19.57;12.67;;;;;;;7.40;94.90;102679.47;5069771;28;20020;-63
2021/12/14 01:25:01;;;;;;;21.13;12.90;;;;;;;7.40;95.32;102659.19;5070415;28;20484;-63
2021/12/14 01:27:44;;;;;;;16.93;12.63;;;;;;;7.40;95.35;102653.03;5065921;28;20062;-63
2021/12/14 01:30:16;;;;;;;19.80;12.90;;;;;;;7.38;95.23;102652.31;5070448;28;20033;-63
2021/12/14 01:32:45;;;;;;;16.77;12.33;;;;;;;7.36;95.71;102641.00;5068159;28;20143;-63
2021/12/14 01:35:13;;;;;;;16.90;13.15;;;;;;;7.35;95.51;102632.22;5070538;28;20108;-63
2021/12/14 01:37:46;;;;;;;15.55;12.48;;;;;;;7.35;95.57;102644.59;5068847;28;20505;-63
2021/12/14 01:40:29;;;;;;;16.15;12.50;;;;;;;7.34;95.73;102648.19;5069496;28;20329;-63
2021/12/14 01:42:56;;;;;;;16.25;12.73;;;;;;;7.34;95.54;102649.03;5070134;28;20041;-63
2021/12/14 01:45:24;;;;;;;18.10;12.40;;;;;;;7.34;95.58;102637.63;5070797;28;20081;-63
2021/12/14 01:47:55;;;;;;;17.27;12.90;;;;;;;7.33;95.48;102649.13;5069919;28;20538;-63
2021/12/14 01:50:36;;;;;;;19.67;12.82;;;;;;;7.32;95.82;102640.38;5070272;28;20028;-63
2021/12/14 01:53:03;;;;;;;16.93;13.20;;;;;;;7.31;95.85;102628.09;5070624;28;20475;-63
2021/12/14 01:55:32;;;;;;;18.13;12.60;;;;;;;7.30;95.48;102630.84;5070581;28;20028;-63
2021/12/14 01:58:00;;;;;;;18.60;12.77;;;;;;;7.30;95.92;102626.41;5066088;28;20056;-63
2021/12/14 02:00:33;;;;;;;16.77;13.33;;;;;;;7.27;95.96;102621.34;5067614;28;20029;-63
2021/12/14 02:03:01;;;;;;;18.30;13.55;;;;;;;7.26;95.92;102610.88;5070057;28;20081;-63
2021/12/14 02:05:36;;;;;;;17.77;13.40;;;;;;;7.27;95.62;102596.72;5070016;28;20020;-63
2021/12/14 02:08:12;;;;;;;18.05;13.55;;;;;;;7.26;95.48;102603.78;5068792;28;20027;-63
2021/12/14 02:10:38;;;;;;;18.20;13.38;;;;;;;7.26;95.57;102608.22;5068846;28;20024;-63
2021/12/14 02:13:05;;;;;;;20.57;13.43;;;;;;;7.25;96.04;102606.53;5069565;28;20512;-63
2021/12/14 02:15:41;;;;;;;19.23;13.33;;;;;;;7.18;96.09;102605.25;5068561;28;20502;-63
2021/12/14 02:18:11;;;;;;;21.23;13.95;;;;;;;7.24;95.75;102626.00;5069010;28;20078;-63
2021/12/14 02:20:39;;;;;;;17.90;13.13;;;;;;;7.23;95.63;102627.78;5063686;28;20020;-63
2021/12/14 02:23:06;;;;;;;19.07;12.40;;;;;;;7.23;95.58;102613.69;5069394;28;20027;-63
2021/12/14 02:25:31;;;;;;;17.90;12.97;;;;;;;7.21;95.99;102627.03;5063944;28;20037;-63
2021/12/14 02:28:02;;;;;;;14.50;11.75;;;;;;;7.21;95.68;102623.53;5072563;28;20467;-63
2021/12/14 02:30:30;;;;;;;15.33;11.63;;;;;;;7.22;95.49;102625.22;5063658;28;20035;-63
2021/12/14 02:32:56;;;;;;;15.43;11.00;;;;;;;7.20;95.29;102627.97;5067438;28;20106;-63
2021/12/14 02:35:28;;;;;;;15.95;11.60;;;;;;;7.21;95.33;102637.59;5064476;28;20094;-63
2021/12/14 02:38:00;;;;;;;17.65;11.40;;;;;;;7.21;95.39;102645.50;5064031;28;20090;-63
2021/12/14 02:40:53;;;;;;;17.23;11.10;;;;;;;7.20;95.65;102630.63;5069569;28;20017;-63
2021/12/14 02:43:14;;;;;;;17.17;11.55;;;;;;;7.18;95.56;102637.81;5067111;28;20060;-63
2021/12/14 02:45:39;;;;;;;15.57;10.77;;;;;;;7.18;95.38;102621.94;5069676;28;20056;-63
2021/12/14 02:48:08;;;;;;;16.57;11.03;;;;;;;7.18;95.30;102616.66;5067943;28;20107;-63
2021/12/14 02:50:33;;;;;;;15.83;10.97;;;;;;;7.17;95.08;102609.69;5069227;28;20040;-63
2021/12/14 02:52:59;;;;;;;14.33;10.50;;;;;;;7.14;95.29;102602.81;5068946;28;20040;-63
2021/12/14 02:55:27;;;;;;;15.57;11.02;;;;;;;7.14;95.23;102605.47;5068778;28;20396;-63
2021/12/14 02:57:57;;;;;;;14.90;10.83;;;;;;;7.11;95.22;102605.69;5063543;28;20190;-63
2021/12/14 03:00:31;;;;;;;15.68;10.32;;;;;;;7.12;95.33;102606.53;5067941;28;20017;-63
2021/12/14 03:02:59;;;;;;;17.27;11.50;;;;;;;7.11;95.10;102608.31;5064553;28;20037;-63
2021/12/14 03:05:28;;;;;;;15.87;10.80;;;;;;;7.10;94.98;102584.66;5066067;28;20031;-63
2021/12/14 03:08:02;;;;;;;18.63;12.57;;;;;;;7.09;95.15;102582.97;5065538;28;20032;-63
2021/12/14 03:12:57;;;;;;;;;;;;;;;7.09;95.27;102564.47;5068654;28;20037;-63
2021/12/14 03:15:25;;;;;;;26.23;19.15;;;;;;;7.07;95.23;102574.28;5068657;28;19916;-63
2021/12/14 03:17:57;;;;;;;24.43;17.77;;;;;;;7.05;94.95;102577.03;5063713;28;20032;-63
2021/12/14 03:20:32;;;;;;;22.43;15.60;;;;;;;7.05;95.12;102584.97;5064811;28;20482;-63
2021/12/14 03:23:03;;;;;;;18.50;12.80;;;;;;;7.04;95.03;102572.72;5067944;28;20400;-63
2021/12/14 03:25:30;;;;;;;16.57;11.60;;;;;;;7.04;94.67;102578.00;5066968;28;20388;-63
2021/12/14 03:27:57;;;;;;;16.27;11.10;;;;;;;7.02;94.90;102579.91;5067698;28;20028;-63
2021/12/14 03:30:26;;;;;;;13.43;9.33;;;;;;;7.00;95.05;102579.16;5059896;28;20036;-63
2021/12/14 03:33:16;;;;;;;14.27;8.87;;;;;;;6.99;94.56;102572.19;5067712;28;20093;-63
2021/12/14 03:35:47;;;;;;;12.90;8.60;;;;;;;6.97;94.80;102560.03;5065207;28;20086;-63
2021/12/14 03:38:42;;;;;;;13.00;8.40;;;;;;;6.90;94.92;102556.94;5066360;28;20480;-63
2021/12/14 03:41:12;;;;;;;14.83;8.87;;;;;;;6.94;95.08;102576.94;5053864;28;20135;-63
2021/12/14 03:43:42;;;;;;;13.02;8.55;;;;;;;6.94;94.90;102586.63;5068132;28;20028;-63
2021/12/14 03:46:08;;;;;;;12.57;8.67;;;;;;;6.94;94.96;102597.19;5068787;28;20039;-63
2021/12/14 03:48:35;;;;;;;16.20;9.20;;;;;;;6.93;94.80;102599.00;5067357;28;20028;-63
2021/12/14 03:51:01;;;;;;;15.47;8.87;;;;;;;6.94;94.81;102616.56;5067756;28;20028;-63
2021/12/14 03:53:27;;;;;;;15.27;8.97;;;;;;;6.90;94.58;102601.84;5068317;28;20177;-63
2021/12/14 03:55:58;;;;;;;14.70;9.17;;;;;;;6.96;94.39;102627.88;5067269;28;20055;-63
2021/12/14 03:58:30;;;;;;;15.87;9.43;;;;;;;6.96;94.64;102622.59;5048967;28;20466;-63
2021/12/14 04:01:05;;;;;;;13.43;9.13;;;;;;;6.98;94.63;102627.75;5062890;28;20580;-63
2021/12/14 04:03:31;;;;;;;15.43;9.57;;;;;;;6.98;94.44;102636.53;5068022;28;20032;-63
2021/12/14 04:05:57;;;;;;;14.07;8.90;;;;;;;6.95;94.84;102631.47;5067898;28;20027;-63
2021/12/14 04:08:24;;;;;;;15.30;9.57;;;;;;;6.97;94.67;102640.13;5067356;28;20456;-63
2021/12/14 04:10:51;;;;;;;15.33;9.77;;;;;;;6.98;94.53;102638.31;5067596;28;20028;-63
2021/12/14 04:13:20;;;;;;;15.93;10.03;;;;;;;6.94;94.85;102621.84;5066369;28;20056;-63
2021/12/14 04:15:46;;;;;;;20.20;10.20;;;;;;;6.95;94.72;102626.19;5070364;28;20311;-63
2021/12/14 04:18:11;;;;;;;14.37;9.67;;;;;;;6.94;94.66;102621.84;5071888;28;20367;-63
2021/12/14 04:20:40;;;;;;;16.47;10.00;;;;;;;6.94;94.81;102619.19;5071866;28;20174;-63
2021/12/14 04:23:22;;;;;;;19.35;10.85;;;;;;;6.93;94.53;102612.19;5072489;28;20153;-63
2021/12/14 04:25:49;;;;;;;15.93;10.50;;;;;;;6.91;94.54;102632.59;5071394;28;20518;-63
2021/12/14 04:28:18;;;;;;;18.03;11.30;;;;;;;6.92;94.74;102630.78;5071144;28;20281;-63
2021/12/14 04:30:45;;;;;;;18.70;11.07;;;;;;;6.92;94.66;102626.34;5069198;28;20163;-63
2021/12/14 04:33:18;;;;;;;17.60;10.73;;;;;;;6.92;94.98;102621.06;5071908;28;20503;-63
2021/12/14 04:35:45;;;;;;;19.10;11.03;;;;;;;6.91;94.57;102619.38;5070881;28;20032;-63
2021/12/14 04:38:22;;;;;;;17.67;11.03;;;;;;;6.87;94.98;102612.63;5070897;28;20508;-63
2021/12/14 04:51:56;;;;;;;19.02;12.48;;;;;;;6.87;94.96;102593.28;5067454;28;20035;-63
2021/12/14 04:54:22;;;;;;;18.67;12.10;;;;;;;6.85;95.22;102598.66;5071684;28;20499;-63
2021/12/14 04:56:48;;;;;;;19.37;12.27;;;;;;;6.87;95.07;102601.22;5072432;28;20103;-63
2021/12/14 04:59:23;;;;;;;22.13;12.53;;;;;;;6.85;95.01;102598.66;5070486;28;20105;-63
2021/12/14 05:01:52;;;;;;;18.00;12.20;;;;;;;6.85;95.18;102606.59;5072358;28;20036;-63
2021/12/14 05:04:21;;;;;;;21.23;12.70;;;;;;;6.85;95.28;102614.50;5071298;28;20020;-63
2021/12/14 05:06:50;;;;;;;18.90;12.23;;;;;;;6.86;95.38;102603.00;5071906;28;20024;-63
2021/12/14 05:09:21;;;;;;;17.85;12.25;;;;;;;6.85;95.41;102593.38;5070306;28;20035;-63
2021/12/14 05:11:53;;;;;;;21.23;12.43;;;;;;;6.84;95.39;102589.91;5071498;28;20020;-63
2021/12/14 05:14:19;;;;;;;22.97;13.63;;;;;;;6.83;95.12;102588.22;5070949;28;20111;-63
2021/12/14 05:16:45;;;;;;;21.50;14.03;;;;;;;6.82;95.57;102583.88;5070742;28;20108;-63
2021/12/14 05:19:11;;;;;;;21.40;13.70;;;;;;;6.82;95.43;102589.16;5069752;28;20019;-63
2021/12/14 05:21:45;;;;;;;22.40;14.47;;;;;;;6.82;95.43;102590.97;5071083;28;20433;-63
2021/12/14 05:24:15;;;;;;;22.20;13.37;;;;;;;6.82;95.49;102583.03;5070912;28;20475;-63
2021/12/14 05:26:43;;;;;;;22.25;14.95;;;;;;;6.81;95.73;102581.34;5070559;28;20028;-63
2021/12/14 05:29:10;;;;;;;22.03;14.27;;;;;;;6.82;95.65;102580.41;5070212;28;20036;-63
2021/12/14 05:31:42;;;;;;;25.67;15.63;;;;;;;6.83;95.68;102580.28;5071276;28;20036;-63
2021/12/14 05:34:08;;;;;;;25.33;16.00;;;;;;;6.82;95.51;102583.03;5069894;28;20024;-63
2021/12/14 05:36:33;;;;;;;24.80;16.23;;;;;;;6.83;95.50;102580.28;5070691;28;20031;-63
2021/12/14 05:39:16;;;;;;;24.83;15.63;;;;;;;6.83;95.37;102579.44;5069363;28;20035;-63
2021/12/14 05:44:26;;;;;;;28.33;17.57;;;;;;;6.83;95.64;102590.84;5070977;28;20051;-63
2021/12/14 05:46:55;;;;;;;26.67;16.83;;;;;;;6.84;95.49;102589.06;5070454;28;20028;-63
2021/12/14 05:49:24;;;;;;;28.05;18.25;;;;;;;6.83;95.44;102593.50;5068995;28;20032;-63
2021/12/14 05:51:59;;;;;;;28.40;17.83;;;;;;;6.83;95.34;102606.69;5066538;28;20020;-63
2021/12/14 05:54:29;;;;;;;29.97;17.60;;;;;;;6.83;95.41;102601.41;5069365;28;20032;-63
2021/12/14 05:56:57;;;;;;;30.40;18.30;;;;;;;6.84;95.52;102607.53;5070634;28;20033;-63
2021/12/14 05:59:27;;;;;;;29.93;18.57;;;;;;;6.76;95.47;102599.28;5068896;28;20103;-63
2021/12/14 06:01:52;;;;;;;34.77;19.50;;;;;;;6.82;95.64;102604.16;5068683;28;20017;-63
2021/12/14 06:04:18;;;;;;;29.83;18.83;;;;;;;6.84;95.78;102596.97;5068952;28;20039;-63
2021/12/14 06:06:47;;;;;;;30.67;18.60;;;;;;;6.83;95.71;102600.56;5070528;28;20021;-63
2021/12/14 06:09:15;;;;;;;28.55;18.52;;;;;;;6.83;95.57;102608.50;5066932;28;20029;-63
2021/12/14 06:11:42;;;;;;;29.53;18.77;;;;;;;6.82;95.85;102615.56;5069883;28;20051;-63
2021/12/14 06:14:15;;;;;;;29.60;18.43;;;;;;;6.83;95.64;102622.53;5069627;28;20058;-63
2021/12/14 06:16:41;;;;;;;29.17;19.03;;;;;;;6.79;95.65;102615.78;5068875;28;20373;-63
2021/12/14 06:19:19;;;;;;;30.40;18.77;;;;;;;6.81;95.42;102620.94;5066843;28;20492;-63
2021/12/14 06:21:58;;;;;;;31.77;20.23;;;;;;;6.81;95.54;102624.44;5077929;28;20055;-63
2021/12/14 06:24:26;;;;;;;30.67;18.70;;;;;;;6.81;95.55;102620.94;5071858;28;20039;-63
2021/12/14 06:26:53;;;;;;;31.63;19.43;;;;;;;6.82;95.44;102627.94;5063344;28;20143;-63
2021/12/14 06:29:23;;;;;;;32.77;19.83;;;;;;;6.80;95.41;102627.19;5063498;28;20297;-63
2021/12/14 06:31:49;;;;;;;30.25;19.83;;;;;;;6.83;95.24;102626.97;5063144;28;20024;-63
2021/12/14 06:34:24;;;;;;;32.13;18.77;;;;;;;6.81;95.38;102624.44;5063840;28;20047;-63
2021/12/14 06:37:16;;;;;;;32.57;18.87;;;;;;;6.82;95.74;102620.00;5065194;28;20082;-63
2021/12/14 06:40:18;;;;;;;34.10;21.10;;;;;;;6.80;95.64;102622.75;5068485;28;20109;-63
2021/12/14 06:42:49;;;;;;;34.43;20.37;;;;;;;6.79;95.39;102626.34;5069328;28;20043;-63
2021/12/14 06:45:19;;;;;;;34.23;20.70;;;;;;;6.79;95.52;102620.22;5069809;28;20085;-63
2021/12/14 06:47:47;;;;;;;34.00;19.97;;;;;;;6.79;95.56;102642.19;5065784;28;20081;-63
2021/12/14 06:50:17;;;;;;;33.57;20.70;;;;;;;6.80;95.49;102645.66;5067312;28;20028;-63
2021/12/14 06:52:42;;;;;;;34.43;21.33;;;;;;;6.78;95.76;102643.13;5066564;28;20118;-63
2021/12/14 06:55:20;;;;;;;36.63;22.27;;;;;;;6.81;95.58;102647.34;5063044;28;20029;-63
2021/12/14 06:57:46;;;;;;;34.70;20.77;;;;;;;6.80;95.42;102648.31;5067922;28;20021;-63
2021/12/14 07:00:11;;;;;;;38.97;22.27;;;;;;;6.81;95.44;102650.00;5068521;28;20017;-63
2021/12/14 07:02:37;;;;;;;36.77;21.37;;;;;;;6.81;95.91;102653.50;5068510;28;20048;-63
2021/12/14 07:05:03;;;;;;;40.53;23.10;;;;;;;6.81;95.43;102652.63;5069077;28;20060;-63
2021/12/14 07:07:30;;;;;;;39.37;22.73;;;;;;;6.79;95.35;102652.75;5066485;28;20496;-63
2021/12/14 07:09:58;;;;;;;36.87;21.50;;;;;;;6.80;95.58;102657.06;5065284;28;20035;-63
2021/12/14 07:12:29;;;;;;;40.93;22.70;;;;;;;6.80;95.80;102653.59;5065770;28;20076;-63
2021/12/14 07:15:00;;;;;;;42.93;22.40;;;;;;;6.82;95.62;102662.25;5063179;28;20107;-63
2021/12/14 07:17:28;;;;;;;41.87;21.30;;;;;;;6.83;95.54;102674.50;5069009;28;20027;-63
2021/12/14 07:19:53;;;;;;;37.73;22.23;;;;;;;6.83;95.34;102670.06;5068136;28;20019;-63
2021/12/14 07:22:31;;;;;;;40.97;22.83;;;;;;;6.84;95.42;102673.56;5069877;28;20020;-63
2021/12/14 07:24:58;;;;;;;41.87;23.60;;;;;;;6.84;95.49;102678.84;5067263;28;20055;-63
2021/12/14 07:27:28;;;;;;;41.43;23.30;;;;;;;6.84;95.44;102684.13;5072548;28;20028;-63
2021/12/14 07:30:12;;;;;;;42.53;24.20;;;;;;;6.84;95.70;102692.03;5061794;28;20016;-63
2021/12/14 07:32:52;;;;;;;43.27;23.47;;;;;;;6.86;95.58;102686.66;5068771;28;20020;-63
2021/12/14 07:35:27;;;;;;;40.75;23.45;;;;;;;6.83;95.42;102691.19;5068601;28;20028;-63
2021/12/14 07:37:56;;;;;;;43.97;24.17;;;;;;;6.83;95.57;102690.34;5067609;28;20105;-63
2021/12/14 07:40:24;;;;;;;42.13;23.35;;;;;;;6.84;95.79;102700.81;5068241;28;20031;-63
2021/12/14 07:43:05;;;;;;;50.43;24.20;;;;;;;6.86;95.76;102702.50;5068607;28;20402;-63
2021/12/14 07:45:30;;;;;;;46.57;24.27;;;;;;;6.86;95.44;102703.34;5067880;28;20032;-63
2021/12/14 07:47:56;;;;;;;47.03;25.07;;;;;;;6.86;95.56;102700.72;5068040;28;20029;-63
2021/12/14 07:50:40;;;;;;;44.70;23.73;;;;;;;6.87;95.87;102698.91;5068098;28;20025;-63
2021/12/14 07:53:05;;;;;;;46.90;25.67;;;;;;;6.86;95.58;102710.44;5068460;28;20434;-63
2021/12/14 07:55:38;;;;;;;46.23;25.13;;;;;;;6.88;95.72;102712.00;5068857;28;20020;-63
2021/12/14 07:58:05;;;;;;;48.53;26.17;;;;;;;6.88;95.68;102706.72;5067626;28;20020;-63
2021/12/14 08:00:35;;;;;;;49.43;26.33;;;;;;;6.88;95.78;102704.09;5068726;28;20070;-63
2021/12/14 08:03:01;;;;;;;46.03;24.87;;;;;;;6.89;95.80;102710.22;5062588;28;20503;-63
2021/12/14 08:05:34;;;;;;;48.03;26.47;;;;;;;6.89;95.80;102718.16;5067978;28;20048;-63
2021/12/14 08:08:15;;;;;;;48.10;25.93;;;;;;;6.90;95.36;102717.19;5067728;28;20472;-63
2021/12/14 08:10:50;;;;;;;46.97;25.63;;;;;;;6.89;95.64;102729.56;5068203;28;20037;-63
2021/12/14 08:13:22;;;;;;;51.40;26.37;;;;;;;6.90;95.48;102719.84;5065541;28;20082;-63
2021/12/14 08:15:58;;;;;;;49.97;25.70;;;;;;;6.90;95.85;102723.31;5067803;28;20063;-63
2021/12/14 08:18:33;;;;;;;50.53;26.57;;;;;;;6.92;95.56;102725.88;5064210;28;20554;-63
2021/12/14 08:21:11;;;;;;;55.97;27.77;;;;;;;6.92;95.66;102731.16;5063945;28;20025;-63
2021/12/14 08:24:02;;;;;;;48.20;25.93;;;;;;;6.92;95.78;102729.34;5063174;28;20104;-63
2021/12/14 08:26:33;;;;;;;54.17;27.33;;;;;;;6.93;95.51;102723.13;5068753;28;20020;-63
2021/12/14 08:29:04;;;;;;;48.67;26.40;;;;;;;6.93;95.88;102725.75;5067049;28;20507;-63
2021/12/14 08:31:35;;;;;;;49.30;26.53;;;;;;;6.94;96.00;102730.13;5068431;28;20064;-63
2021/12/14 08:34:05;;;;;;;54.03;28.83;;;;;;;6.95;95.63;102726.53;5068196;28;20023;-63
2021/12/14 08:36:49;;;;;;;52.03;27.07;;;;;;;6.97;95.98;102734.38;5068352;28;20028;-63
2021/12/14 08:39:20;;;;;;;54.10;28.57;;;;;;;6.94;95.77;102732.78;5061722;28;20027;-63
2021/12/14 08:41:54;;;;;;;54.37;27.47;;;;;;;6.97;95.47;102732.56;5067997;28;20087;-63
2021/12/14 08:44:36;;;;;;;55.17;28.37;;;;;;;6.97;95.60;102729.06;5068173;28;20021;-63
2021/12/14 08:47:04;;;;;;;52.37;28.90;;;;;;;6.98;96.05;102728.97;5068257;28;20020;-63
2021/12/14 08:49:29;;;;;;;53.33;28.67;;;;;;;7.02;95.71;102743.66;5066882;28;20028;-63
2021/12/14 08:51:55;;;;;;;57.00;28.80;;;;;;;7.01;95.63;102734.06;5068432;28;20039;-63
2021/12/14 08:54:26;;;;;;;51.57;28.97;;;;;;;7.04;95.88;102736.50;5065700;28;20516;-63
2021/12/14 08:57:03;;;;;;;54.67;29.60;;;;;;;7.06;95.78;102737.22;5065882;28;20708;-63
2021/12/14 08:59:29;;;;;;;52.43;28.17;;;;;;;7.08;95.67;102743.25;5067382;28;20162;-63
2021/12/14 09:01:56;;;;;;;56.43;30.17;;;;;;;7.10;95.31;102741.38;5070147;28;20111;-63
2021/12/14 09:04:26;;;;;;;56.17;29.17;;;;;;;7.11;95.91;102737.78;5071567;28;20024;-63
2021/12/14 09:06:56;;;;;;;53.53;28.67;;;;;;;7.13;95.69;102741.16;5071241;28;20024;-63
2021/12/14 09:09:22;;;;;;;53.00;29.20;;;;;;;7.15;95.68;102744.53;5065325;28;20032;-63
2021/12/14 09:11:56;;;;;;;56.57;28.90;;;;;;;7.19;95.33;102750.47;5066007;28;20028;-63
2021/12/14 09:14:23;;;;;;;54.67;28.40;;;;;;;7.21;95.69;102753.00;5067050;28;20020;-63
2021/12/14 09:16:51;;;;;;;51.80;28.73;;;;;;;7.23;95.70;102751.09;5068923;28;20064;-63
2021/12/14 09:19:28;;;;;;;54.80;29.23;;;;;;;7.25;95.44;102749.25;5067091;28;20055;-63
2021/12/14 09:21:57;;;;;;;51.93;29.40;;;;;;;7.27;95.35;102744.69;5071410;28;20024;-63
2021/12/14 09:24:25;;;;;;;53.00;28.48;;;;;;;7.29;95.27;102745.44;5070742;28;20074;-63
2021/12/14 09:26:56;;;;;;;52.67;29.23;;;;;;;7.32;94.98;102745.22;5071015;28;20074;-63
2021/12/14 09:29:24;;;;;;;51.40;28.53;;;;;;;7.34;95.14;102744.19;5067921;28;20111;-63
2021/12/14 09:31:52;;;;;;;50.97;28.00;;;;;;;7.36;95.11;102747.56;5064041;28;20059;-63
2021/12/14 09:34:22;;;;;;;52.22;28.23;;;;;;;7.38;95.04;102747.47;5066623;28;20472;-63
2021/12/14 09:36:50;;;;;;;53.80;29.27;;;;;;;7.39;94.92;102751.78;5070679;28;20031;-63
2021/12/14 09:39:21;;;;;;;58.63;30.73;;;;;;;7.39;95.28;102743.84;5070090;28;20016;-63
2021/12/14 09:41:53;;;;;;;52.13;29.00;;;;;;;7.40;95.11;102746.41;5068933;28;20119;-62
2021/12/14 09:44:23;;;;;;;57.23;29.63;;;;;;;7.44;95.09;102739.94;5070792;28;20040;-63
2021/12/14 09:46:49;;;;;;;;;;;;;;;7.50;95.04;102738.69;5068644;28;20033;-63
2021/12/14 09:49:16;;;;;;;51.75;29.40;;;;;;;7.51;94.91;102734.25;5067625;28;19916;-62
2021/12/14 09:51:47;;;;;;;56.43;30.83;;;;;;;7.51;95.17;102729.81;5070719;28;20027;-62
2021/12/14 09:54:16;;;;;;;55.80;30.25;;;;;;;7.53;95.04;102735.88;5065284;28;20075;-62
2021/12/14 09:56:50;;;;;;;55.28;30.85;;;;;;;7.55;94.68;102733.13;5062303;28;20142;-63
2021/12/14 09:59:17;;;;;;;52.83;29.90;;;;;;;7.56;95.05;102727.72;5064770;28;20985;-63
2021/12/14 10:01:51;;;;;;;57.90;30.67;;;;;;;7.58;94.93;102739.03;5068456;28;20107;-61
2021/12/14 10:04:22;;;;;;;57.10;31.07;;;;;;;7.62;95.10;102737.88;5065548;28;20048;-61
2021/12/14 10:06:49;;;;;;;54.30;30.02;;;;;;;7.66;95.06;102738.50;5070299;28;20361;-61
2021/12/14 10:09:20;;;;;;;56.83;31.20;;;;;;;7.69;94.83;102738.28;5069449;28;20024;-61
2021/12/14 10:14:28;;;;;;;62.53;32.60;;;;;;;7.78;95.03;102743.78;5057836;28;20413;-61
2021/12/14 10:16:54;;;;;;;56.05;30.98;;;;;;;7.83;94.89;102734.72;5066142;28;20020;-61
2021/12/14 10:19:25;;;;;;;52.42;29.15;;;;;;;7.83;94.58;102734.72;5052393;28;20029;-61
2021/12/14 10:22:01;;;;;;;58.90;30.83;;;;;;;7.84;94.44;102731.97;5035271;28;20033;-61
2021/12/14 10:24:27;;;;;;;56.30;30.63;;;;;;;7.86;94.53;102751.22;5069249;28;20097;-61
2021/12/14 10:26:57;;;;;;;56.78;32.05;;;;;;;7.85;94.63;102744.22;5065713;28;20028;-62
2021/12/14 10:29:25;;;;;;;;;;;;;;;7.89;94.24;102744.84;5065174;28;20448;-62
2021/12/14 10:31:58;;;;;;;56.88;32.20;;;;;;;7.89;94.49;102751.00;5069389;28;19912;-61
2021/12/14 10:34:26;;;;;;;54.25;30.33;;;;;;;7.91;94.23;102746.44;5061131;28;20062;-61
2021/12/14 10:37:08;;;;;;;56.55;32.30;;;;;;;7.92;94.08;102744.66;5070957;28;20039;-61
2021/12/14 10:44:54;;;;;;;55.45;31.23;;;;;;;7.94;94.42;102743.59;5069216;28;20036;-61
2021/12/14 10:47:24;;;;;;;60.17;32.53;;;;;;;7.98;94.16;102738.91;5064082;28;20032;-61
2021/12/14 10:49:50;;;;;;;54.13;31.73;;;;;;;7.97;94.39;102732.78;5056609;28;20036;-61
2021/12/14 10:52:21;;;;;;;55.60;31.15;;;;;;;7.96;94.42;102739.03;5068156;28;20043;-61
2021/12/14 10:54:52;;;;;;;57.88;32.50;;;;;;;7.96;93.98;102746.13;5069036;28;20048;-61
2021/12/14 10:57:23;;;;;;;58.45;31.42;;;;;;;7.95;94.37;102745.28;5072996;28;20016;-61
2021/12/14 10:59:52;;;;;;;58.33;32.60;;;;;;;7.99;94.04;102743.25;5066829;28;20063;-61
2021/12/14 11:02:20;;;;;;;;;;;;;;;8.03;94.11;102736.78;5074580;28;20127;-61
2021/12/14 11:04:56;;;;;;;64.50;31.13;;;;;;;8.05;94.30;102733.09;5070482;28;19912;-61
2021/12/14 11:07:35;;;;;;;59.53;31.48;;;;;;;8.10;94.29;102735.44;5073213;28;20016;-62
2021/12/14 11:10:17;;;;;;;64.45;34.47;;;;;;;8.13;94.03;102724.63;5066688;28;20107;-61
2021/12/14 11:12:47;;;;;;;59.88;31.88;;;;;;;8.19;94.13;102736.56;5068960;28;20032;-61
2021/12/14 11:15:35;;;;;;;61.92;33.30;;;;;;;8.22;94.04;102725.78;5068906;28;20081;-62
2021/12/14 11:18:09;;;;;;;63.00;32.55;;;;;;;8.26;93.98;102725.44;5066061;28;20107;-61
2021/12/14 11:21:03;;;;;;;60.10;33.47;;;;;;;8.31;93.88;102722.47;5048293;28;20486;-61
2021/12/14 11:23:32;;;;;;;61.80;32.92;;;;;;;8.33;93.68;102725.84;5064527;28;20491;-61
2021/12/14 11:26:04;;;;;;;59.60;32.72;;;;;;;8.35;94.19;102716.84;5067538;28;20031;-61
2021/12/14 11:28:44;;;;;;;60.65;32.78;;;;;;;8.36;93.53;102713.25;5064294;28;20397;-61
2021/12/14 11:31:27;;;;;;;62.80;33.20;;;;;;;8.35;93.76;102711.56;5064515;28;20032;-61
2021/12/14 11:34:11;;;;;;;65.28;33.55;;;;;;;8.40;93.38;102718.34;5067602;28;20020;-61
2021/12/14 11:36:44;;;;;;;60.92;32.58;;;;;;;8.40;93.61;102713.06;5067306;28;20024;-61
2021/12/14 11:39:23;;;;;;;62.45;32.35;;;;;;;8.41;93.54;102705.00;5063786;28;20492;-61
2021/12/14 11:41:54;;;;;;;;;;;;;;;8.43;93.26;102705.75;5064742;28;20029;-61
2021/12/14 11:44:28;;;;;;;66.57;34.42;;;;;;;8.44;93.42;102709.22;5065435;28;20003;-61
2021/12/14 11:50:18;;;;;;;62.50;33.33;;;;;;;8.44;93.28;102722.47;5064972;28;20041;-61
2021/12/14 11:52:51;;;;;;;63.03;35.47;;;;;;;8.42;93.25;102705.84;5066678;28;20040;-61
2021/12/14 11:55:35;;;;;;;65.60;36.50;;;;;;;8.42;93.21;102700.56;5062137;28;20028;-61
2021/12/14 11:58:36;;;;;;;69.38;35.83;;;;;;;8.43;93.44;102702.25;5063945;28;20058;-61
2021/12/14 12:01:28;;;;;;;75.65;37.05;;;;;;;8.45;93.33;102709.13;5067773;28;20065;-61
2021/12/14 12:04:10;;;;;;;71.38;37.65;;;;;;;8.47;93.74;102709.84;5067327;28;20487;-61
2021/12/14 12:09:29;;;;;;;72.68;36.72;;;;;;;8.47;93.69;102709.84;5067499;28;20117;-61
2021/12/14 12:12:23;;;;;;;71.40;38.08;;;;;;;8.48;93.40;102711.53;5066846;28;20491;-61
2021/12/14 12:15:05;;;;;;;71.47;36.25;;;;;;;8.47;93.66;102711.66;5055255;28;20036;-61